Duck Lake, Canada
Current Conditions -  °F | °C
As of 5:28 PM on Thursday 18 Dec 2014 (Local Time) from CYPA Reporting Station
Light Snow Light Snow  
Wind Chill: 19°   Ceiling: 600
Heat Index: 19°   Visibility: 4mi
Dew Point: 19°   Wind: 2mph
Humidity: 100%   Direction: 60°ENE
Pressure: 29.9"   Gusts: NA
Location:  52.8°N, 106.22°W
Report Text: CYPA 182328Z 06002KT 4SM -SG BR OVC006 M07/M07 A2990 RMK ST8 SLP157
Loading
Personal Weather Stations






























Interactive Weather Map New forecast layout! Learn more

10-Day Weather Forecast

Advertisements
Track Severe Weather on mobile